Time;durP1;ratioP1;P1;durP2;ratioP2;P2;SDS_P1;SDS_P2;PMS_P1;PMS_P2;Temp;Humidity;BMP_temperature;BMP_pressure;BME280_temperature;BME280_humidity;BME280_pressure;Samples;Min_cycle;Max_cycle;Signal;HPM_P1;HPM_P2
2023/12/01 00:00:19;;;;;;;;;;;18.90;37.60;;;;;;5101871;28;19928;-47
2023/12/01 00:02:46;;;;;;;;;;;18.90;37.50;;;;;;5104774;28;19931;-47
2023/12/01 00:05:13;;;;;;;;;;;18.90;37.50;;;;;;5103920;28;19924;-47
2023/12/01 00:07:39;;;;;;;;;;;18.90;37.50;;;;;;5105011;28;19928;-48
2023/12/01 00:10:11;;;;;;;;;;;18.90;37.50;;;;;;5109072;27;19923;-54
2023/12/01 00:12:38;;;;;;;;;;;18.90;37.50;;;;;;5098947;28;19924;-55
2023/12/01 00:15:06;;;;;;;;;;;18.90;37.50;;;;;;5098420;27;19945;-50
2023/12/01 00:17:33;;;;;;;;;;;18.90;37.50;;;;;;5107634;27;19945;-51
2023/12/01 00:20:00;;;;;;;;;;;18.90;37.50;;;;;;5104859;27;19928;-47
2023/12/01 00:22:27;;;;;;;;;;;18.90;37.50;;;;;;5110025;28;19949;-51
2023/12/01 00:24:53;;;;;;;;;;;18.90;37.50;;;;;;5118812;27;20540;-49
2023/12/01 00:27:22;;;;;;;;;;;18.90;37.50;;;;;;5105900;28;19931;-54
2023/12/01 00:29:48;;;;;;;;;;;18.90;37.50;;;;;;5099817;27;19935;-50
2023/12/01 00:32:15;;;;;;;;;;;18.90;37.50;;;;;;5107531;27;19924;-52
2023/12/01 00:34:42;;;;;;;;;;;18.90;37.50;;;;;;5106714;28;19968;-51
2023/12/01 00:37:24;;;;;;;;;;;18.90;37.50;;;;;;5098762;28;19924;-53
2023/12/01 00:39:51;;;;;;;;;;;18.90;37.40;;;;;;5103747;28;19935;-53
2023/12/01 00:42:17;;;;;;;;;;;18.90;37.40;;;;;;5116064;27;19976;-54
2023/12/01 00:44:46;;;;;;;;;;;18.90;37.40;;;;;;5112440;27;19985;-50
2023/12/01 00:47:13;;;;;;;;;;;18.90;37.40;;;;;;5094653;28;19924;-52
2023/12/01 00:49:39;;;;;;;;;;;18.90;37.40;;;;;;5108576;28;19924;-48
2023/12/01 00:52:06;;;;;;;;;;;18.90;37.40;;;;;;5104144;28;19945;-54
2023/12/01 00:54:33;;;;;;;;;;;18.90;37.40;;;;;;5099689;28;19931;-52
2023/12/01 00:57:00;;;;;;;;;;;18.90;37.30;;;;;;5097175;28;19928;-55
2023/12/01 00:59:26;;;;;;;;;;;18.90;37.30;;;;;;5097830;28;19924;-52
2023/12/01 01:01:55;;;;;;;;;;;18.90;37.30;;;;;;5099551;28;19991;-52
2023/12/01 01:04:21;;;;;;;;;;;18.90;37.30;;;;;;5098727;28;21340;-51
2023/12/01 01:06:48;;;;;;;;;;;18.90;37.30;;;;;;5101405;28;20418;-53
2023/12/01 01:09:15;;;;;;;;;;;18.90;37.30;;;;;;5098117;28;19924;-53
2023/12/01 01:11:42;;;;;;;;;;;18.90;37.30;;;;;;5102299;28;19931;-53
2023/12/01 01:14:09;;;;;;;;;;;18.90;37.30;;;;;;5102258;28;19924;-49
2023/12/01 01:16:35;;;;;;;;;;;18.90;37.30;;;;;;5098347;28;19924;-51
2023/12/01 01:19:04;;;;;;;;;;;18.90;37.30;;;;;;5111984;28;19928;-49
2023/12/01 01:21:30;;;;;;;;;;;18.90;37.30;;;;;;5087702;28;20024;-54
2023/12/01 01:23:57;;;;;;;;;;;18.90;37.20;;;;;;5094108;28;19928;-54
2023/12/01 01:26:24;;;;;;;;;;;18.90;37.20;;;;;;5110811;28;19951;-49
2023/12/01 01:28:51;;;;;;;;;;;18.90;37.30;;;;;;5103904;28;19927;-48
2023/12/01 01:31:17;;;;;;;;;;;18.90;37.20;;;;;;5107547;28;19924;-53
2023/12/01 01:33:44;;;;;;;;;;;18.90;37.20;;;;;;5094156;28;19923;-54
2023/12/01 01:36:13;;;;;;;;;;;18.90;37.20;;;;;;5094180;28;19936;-54
2023/12/01 01:38:40;;;;;;;;;;;18.90;37.20;;;;;;5101891;28;19924;-50
2023/12/01 01:41:07;;;;;;;;;;;18.90;37.20;;;;;;5108429;28;19931;-47
2023/12/01 01:43:34;;;;;;;;;;;18.90;37.10;;;;;;5111718;28;19931;-53
2023/12/01 01:46:02;;;;;;;;;;;18.90;37.20;;;;;;5104069;28;19928;-51
2023/12/01 01:48:29;;;;;;;;;;;18.90;37.10;;;;;;5100707;28;19969;-53
2023/12/01 01:50:55;;;;;;;;;;;18.90;37.10;;;;;;5101837;28;19924;-51
2023/12/01 01:53:24;;;;;;;;;;;18.90;37.10;;;;;;5108530;27;20022;-52
2023/12/01 01:55:50;;;;;;;;;;;18.90;37.10;;;;;;5098983;28;19928;-52
2023/12/01 01:58:17;;;;;;;;;;;18.90;37.00;;;;;;5096140;28;19923;-51
2023/12/01 02:00:49;;;;;;;;;;;18.90;37.10;;;;;;5112615;28;19969;-51
2023/12/01 02:03:16;;;;;;;;;;;18.90;37.00;;;;;;5094775;28;19924;-52
2023/12/01 02:05:47;;;;;;;;;;;18.90;37.00;;;;;;5096029;28;19977;-53
2023/12/01 02:08:21;;;;;;;;;;;18.90;37.00;;;;;;5103242;28;20006;-52
2023/12/01 02:10:50;;;;;;;;;;;18.90;37.00;;;;;;5100758;28;20006;-50
2023/12/01 02:13:17;;;;;;;;;;;18.90;37.00;;;;;;5107786;28;19923;-49
2023/12/01 02:15:43;;;;;;;;;;;18.90;37.00;;;;;;5112550;28;19928;-52
2023/12/01 02:18:19;;;;;;;;;;;18.90;37.00;;;;;;5114557;28;19930;-53
2023/12/01 02:20:45;;;;;;;;;;;18.90;37.00;;;;;;5114572;28;19924;-50
2023/12/01 02:23:14;;;;;;;;;;;18.90;37.00;;;;;;5104885;28;19973;-49
2023/12/01 02:25:40;;;;;;;;;;;18.90;37.00;;;;;;5102231;28;19924;-49
2023/12/01 02:28:07;;;;;;;;;;;18.90;37.00;;;;;;5099592;28;19976;-54
2023/12/01 02:30:34;;;;;;;;;;;18.90;37.00;;;;;;5113709;28;19923;-54
2023/12/01 02:33:01;;;;;;;;;;;18.90;36.90;;;;;;5097178;28;19931;-53
2023/12/01 02:35:29;;;;;;;;;;;18.90;36.90;;;;;;5099312;28;19924;-54
2023/12/01 02:37:56;;;;;;;;;;;18.90;36.90;;;;;;5100656;28;19954;-50
2023/12/01 02:40:24;;;;;;;;;;;18.80;36.80;;;;;;5104603;28;19977;-49
2023/12/01 02:42:51;;;;;;;;;;;18.90;36.90;;;;;;5107401;28;19927;-50
2023/12/01 02:45:18;;;;;;;;;;;18.90;36.90;;;;;;5101521;28;19928;-52
2023/12/01 02:47:47;;;;;;;;;;;18.80;36.80;;;;;;5109858;28;19955;-51
2023/12/01 02:50:14;;;;;;;;;;;18.80;36.80;;;;;;5113318;28;19927;-54
2023/12/01 02:52:41;;;;;;;;;;;18.80;36.80;;;;;;5096989;28;19934;-53
2023/12/01 02:55:08;;;;;;;;;;;18.90;36.80;;;;;;5113146;27;20038;-55
2023/12/01 02:57:37;;;;;;;;;;;18.80;36.70;;;;;;5113723;28;19930;-49
2023/12/01 03:00:07;;;;;;;;;;;18.80;36.70;;;;;;5099374;28;20140;-51
2023/12/01 03:02:35;;;;;;;;;;;18.80;36.70;;;;;;5102961;28;20010;-54
2023/12/01 03:05:00;;;;;;;;;;;18.80;36.70;;;;;;5104724;28;19938;-53
2023/12/01 03:07:27;;;;;;;;;;;18.80;36.60;;;;;;5096449;28;20409;-53
2023/12/01 03:09:54;;;;;;;;;;;18.80;36.60;;;;;;5111574;28;19932;-49
2023/12/01 03:12:21;;;;;;;;;;;18.80;36.60;;;;;;5113486;27;19931;-50
2023/12/01 03:14:49;;;;;;;;;;;18.80;36.60;;;;;;5102681;28;19928;-51
2023/12/01 03:17:16;;;;;;;;;;;18.80;36.60;;;;;;5104507;28;19928;-52
2023/12/01 03:19:45;;;;;;;;;;;18.80;36.50;;;;;;5100503;28;19928;-54
2023/12/01 03:22:12;;;;;;;;;;;18.80;36.50;;;;;;5110274;28;19954;-50
2023/12/01 03:24:40;;;;;;;;;;;18.80;36.50;;;;;;5113578;28;19924;-53
2023/12/01 03:27:06;;;;;;;;;;;18.80;36.50;;;;;;5107249;27;19928;-55
2023/12/01 03:29:34;;;;;;;;;;;18.80;36.40;;;;;;5112896;28;19923;-53
2023/12/01 03:32:04;;;;;;;;;;;18.80;36.50;;;;;;5099723;28;19970;-54
2023/12/01 03:34:31;;;;;;;;;;;18.80;36.40;;;;;;5109191;28;19973;-52
2023/12/01 03:36:57;;;;;;;;;;;18.80;36.40;;;;;;5105850;28;19924;-53
2023/12/01 03:39:25;;;;;;;;;;;18.80;36.40;;;;;;5110779;28;20341;-48
2023/12/01 03:41:52;;;;;;;;;;;18.80;36.40;;;;;;5099405;28;19932;-52
2023/12/01 03:44:19;;;;;;;;;;;18.80;36.40;;;;;;5113432;28;19954;-52
2023/12/01 03:46:45;;;;;;;;;;;18.80;36.40;;;;;;5113175;28;19924;-50
2023/12/01 03:49:14;;;;;;;;;;;18.80;36.40;;;;;;5102565;28;19924;-55
2023/12/01 03:51:40;;;;;;;;;;;18.80;36.40;;;;;;5108403;28;20000;-49
2023/12/01 03:54:07;;;;;;;;;;;18.80;36.40;;;;;;5100220;28;19931;-53
2023/12/01 03:56:36;;;;;;;;;;;18.80;36.30;;;;;;5111541;28;19927;-49
2023/12/01 03:59:03;;;;;;;;;;;18.80;36.30;;;;;;5112319;28;19927;-54
2023/12/01 04:01:30;;;;;;;;;;;18.80;36.30;;;;;;5110481;28;19972;-52
2023/12/01 04:03:57;;;;;;;;;;;18.80;36.30;;;;;;5098016;28;20011;-55
2023/12/01 04:06:25;;;;;;;;;;;18.80;36.30;;;;;;5111711;28;19928;-53
2023/12/01 04:08:53;;;;;;;;;;;18.80;36.50;;;;;;5110515;28;19932;-55
2023/12/01 04:11:20;;;;;;;;;;;18.80;36.20;;;;;;5088686;28;19963;-51
2023/12/01 04:13:47;;;;;;;;;;;18.80;36.20;;;;;;5111984;28;19930;-55
2023/12/01 04:16:14;;;;;;;;;;;18.80;36.20;;;;;;5092549;28;19924;-54
2023/12/01 04:18:40;;;;;;;;;;;18.80;36.20;;;;;;5098873;28;19924;-54
2023/12/01 04:21:09;;;;;;;;;;;18.80;36.20;;;;;;5114997;27;20285;-52
2023/12/01 04:23:37;;;;;;;;;;;18.80;36.10;;;;;;5098851;28;19931;-52
2023/12/01 04:26:04;;;;;;;;;;;18.80;36.10;;;;;;5112252;28;19927;-53
2023/12/01 04:28:31;;;;;;;;;;;18.80;36.10;;;;;;5099196;28;19981;-49
2023/12/01 04:30:58;;;;;;;;;;;18.80;36.00;;;;;;5099156;28;19924;-57
2023/12/01 04:33:24;;;;;;;;;;;18.80;36.00;;;;;;5099012;28;19927;-54
2023/12/01 04:35:51;;;;;;;;;;;18.80;36.00;;;;;;5103614;28;20586;-54
2023/12/01 04:38:18;;;;;;;;;;;18.70;35.90;;;;;;5099496;28;19935;-54
2023/12/01 04:40:46;;;;;;;;;;;18.80;36.00;;;;;;5104474;28;20199;-56
2023/12/01 04:43:13;;;;;;;;;;;18.80;36.00;;;;;;5101156;28;19928;-50
2023/12/01 04:45:39;;;;;;;;;;;18.80;35.90;;;;;;5112261;28;19923;-55
2023/12/01 04:48:08;;;;;;;;;;;18.80;35.90;;;;;;5097628;28;19927;-56
2023/12/01 04:50:35;;;;;;;;;;;18.80;35.90;;;;;;5107256;28;19974;-51
2023/12/01 04:53:02;;;;;;;;;;;18.80;35.90;;;;;;5095634;28;19936;-52
2023/12/01 04:55:29;;;;;;;;;;;18.80;35.90;;;;;;5108829;28;19927;-49
2023/12/01 04:57:58;;;;;;;;;;;18.80;35.90;;;;;;5121199;27;19924;-52
2023/12/01 05:00:25;;;;;;;;;;;18.80;35.90;;;;;;5104076;28;19924;-55
2023/12/01 05:02:52;;;;;;;;;;;18.80;35.90;;;;;;5109865;28;19923;-54
2023/12/01 05:05:20;;;;;;;;;;;18.80;35.90;;;;;;5095696;28;19923;-51
2023/12/01 05:07:49;;;;;;;;;;;18.80;35.80;;;;;;5113105;28;20005;-52
2023/12/01 05:10:16;;;;;;;;;;;18.80;35.80;;;;;;5102685;28;19924;-53
2023/12/01 05:12:43;;;;;;;;;;;18.80;35.80;;;;;;5102367;28;19924;-52
2023/12/01 05:15:16;;;;;;;;;;;18.80;35.80;;;;;;5099415;28;19962;-52
2023/12/01 05:17:44;;;;;;;;;;;18.80;36.40;;;;;;5096967;28;20038;-54
2023/12/01 05:20:15;;;;;;;;;;;18.80;35.80;;;;;;5103530;27;19932;-52
2023/12/01 05:22:42;;;;;;;;;;;18.80;35.80;;;;;;5103977;28;20007;-53
2023/12/01 05:25:13;;;;;;;;;;;18.80;35.80;;;;;;5098959;28;19989;-55
2023/12/01 05:27:41;;;;;;;;;;;18.80;35.80;;;;;;5107139;28;20407;-53
2023/12/01 05:30:08;;;;;;;;;;;18.80;35.80;;;;;;5118247;27;19924;-53
2023/12/01 05:32:38;;;;;;;;;;;18.80;35.80;;;;;;5115132;27;19924;-51
2023/12/01 05:35:05;;;;;;;;;;;18.80;35.80;;;;;;5107678;27;20369;-54
2023/12/01 05:37:32;;;;;;;;;;;18.70;35.60;;;;;;5118267;27;19993;-53
2023/12/01 05:39:58;;;;;;;;;;;18.80;35.70;;;;;;5118407;27;19931;-55
2023/12/01 05:42:25;;;;;;;;;;;18.70;35.60;;;;;;5103301;27;19924;-52
2023/12/01 05:44:52;;;;;;;;;;;18.80;35.70;;;;;;5114463;27;19928;-54
2023/12/01 05:47:19;;;;;;;;;;;18.80;35.70;;;;;;5097213;28;19924;-54
2023/12/01 05:49:47;;;;;;;;;;;18.80;35.70;;;;;;5099666;28;19924;-52
2023/12/01 05:52:14;;;;;;;;;;;18.80;35.70;;;;;;5101500;28;19985;-53
2023/12/01 05:54:41;;;;;;;;;;;18.80;35.70;;;;;;5111370;27;19987;-54
2023/12/01 05:57:08;;;;;;;;;;;18.80;35.70;;;;;;5114115;28;19930;-53
2023/12/01 05:59:35;;;;;;;;;;;18.80;36.20;;;;;;5104363;27;19962;-53
2023/12/01 06:02:10;;;;;;;;;;;18.70;35.50;;;;;;5106266;27;19931;-55
2023/12/01 06:04:37;;;;;;;;;;;18.70;35.50;;;;;;5109261;27;20350;-51
2023/12/01 06:07:07;;;;;;;;;;;18.70;35.50;;;;;;5113069;27;19935;-57
2023/12/01 06:09:35;;;;;;;;;;;18.70;35.50;;;;;;5104945;27;19927;-53
2023/12/01 06:12:01;;;;;;;;;;;18.70;35.50;;;;;;5105163;27;19955;-53
2023/12/01 06:14:28;;;;;;;;;;;18.80;35.60;;;;;;5107110;27;19924;-55
2023/12/01 06:16:55;;;;;;;;;;;18.70;35.50;;;;;;5106413;28;19928;-52
2023/12/01 06:19:24;;;;;;;;;;;18.70;35.50;;;;;;5109012;27;19923;-52
2023/12/01 06:21:51;;;;;;;;;;;18.70;35.50;;;;;;5104245;27;19924;-51
2023/12/01 06:24:21;;;;;;;;;;;18.70;35.50;;;;;;5116472;27;19923;-54
2023/12/01 06:26:48;;;;;;;;;;;18.70;35.50;;;;;;5101715;27;19986;-54
2023/12/01 06:29:15;;;;;;;;;;;18.70;35.60;;;;;;5105190;28;19960;-53
2023/12/01 06:31:42;;;;;;;;;;;18.70;35.60;;;;;;5108415;28;19928;-52
2023/12/01 06:34:08;;;;;;;;;;;18.70;35.60;;;;;;5106709;27;20013;-52
2023/12/01 06:36:35;;;;;;;;;;;18.70;35.60;;;;;;5104537;27;19947;-53
2023/12/01 06:39:10;;;;;;;;;;;18.70;35.60;;;;;;5105083;28;19977;-52
2023/12/01 06:41:38;;;;;;;;;;;18.70;35.60;;;;;;5104042;28;19930;-54
2023/12/01 06:44:05;;;;;;;;;;;18.70;35.60;;;;;;5100427;28;19936;-56
2023/12/01 06:46:32;;;;;;;;;;;18.70;35.60;;;;;;5107215;28;19927;-51
2023/12/01 06:48:59;;;;;;;;;;;18.70;35.60;;;;;;5105207;28;19957;-56
2023/12/01 06:51:25;;;;;;;;;;;18.80;35.70;;;;;;5108749;28;20297;-53
2023/12/01 06:53:52;;;;;;;;;;;18.70;35.60;;;;;;5105033;28;19924;-52
2023/12/01 06:56:19;;;;;;;;;;;18.70;35.60;;;;;;5097941;28;20001;-54
2023/12/01 06:58:47;;;;;;;;;;;18.70;35.60;;;;;;5100456;28;19928;-51
2023/12/01 07:01:18;;;;;;;;;;;18.70;35.60;;;;;;5094680;28;19928;-50
2023/12/01 07:03:45;;;;;;;;;;;18.70;35.60;;;;;;5113820;28;19935;-55
2023/12/01 07:06:12;;;;;;;;;;;18.70;35.50;;;;;;5103567;28;19970;-52
2023/12/01 07:08:40;;;;;;;;;;;18.70;35.50;;;;;;5113726;28;19923;-51
2023/12/01 07:11:07;;;;;;;;;;;18.70;35.50;;;;;;5098443;28;19927;-56
2023/12/01 07:13:33;;;;;;;;;;;18.70;35.50;;;;;;5100938;28;19957;-54
2023/12/01 07:16:10;;;;;;;;;;;18.70;35.50;;;;;;5109746;28;19928;-53
2023/12/01 07:18:40;;;;;;;;;;;18.70;35.60;;;;;;5101058;28;19930;-55
2023/12/01 07:21:07;;;;;;;;;;;18.70;35.60;;;;;;5095338;28;19923;-56
2023/12/01 07:23:34;;;;;;;;;;;18.70;35.70;;;;;;5095308;28;19927;-59
2023/12/01 07:26:00;;;;;;;;;;;18.70;35.70;;;;;;5094530;28;19947;-57
2023/12/01 07:28:28;;;;;;;;;;;18.70;29.80;;;;;;5105983;28;19937;-59
2023/12/01 07:30:55;;;;;;;;;;;18.50;26.10;;;;;;5098145;28;19924;-53
2023/12/01 07:33:23;;;;;;;;;;;18.20;26.00;;;;;;5103190;28;19931;-53
2023/12/01 07:35:49;;;;;;;;;;;18.00;27.60;;;;;;5112135;28;19989;-53
2023/12/01 07:38:16;;;;;;;;;;;17.80;28.80;;;;;;5102682;28;19928;-50
2023/12/01 07:40:44;;;;;;;;;;;17.70;29.60;;;;;;5088050;28;20016;-47
2023/12/01 07:43:11;;;;;;;;;;;17.70;30.20;;;;;;5096077;28;19969;-51
2023/12/01 07:45:38;;;;;;;;;;;17.70;30.70;;;;;;5097096;28;19927;-55
2023/12/01 07:48:05;;;;;;;;;;;17.70;31.10;;;;;;5098573;28;19960;-50
2023/12/01 07:50:33;;;;;;;;;;;17.80;31.60;;;;;;5110927;28;19923;-57
2023/12/01 07:53:03;;;;;;;;;;;17.80;31.90;;;;;;5095852;28;19991;-50
2023/12/01 07:55:30;;;;;;;;;;;17.80;32.20;;;;;;5098726;28;19962;-51
2023/12/01 07:57:57;;;;;;;;;;;17.90;32.50;;;;;;5104357;28;19931;-51
2023/12/01 08:00:24;;;;;;;;;;;17.90;32.70;;;;;;5096961;28;19951;-53
2023/12/01 08:02:52;;;;;;;;;;;18.00;32.90;;;;;;5108485;28;19920;-50
2023/12/01 08:05:19;;;;;;;;;;;18.10;33.10;;;;;;5108121;28;20389;-56
2023/12/01 08:07:47;;;;;;;;;;;18.10;33.20;;;;;;5107165;28;20327;-55
2023/12/01 08:10:15;;;;;;;;;;;18.10;33.30;;;;;;5097807;28;19924;-54
2023/12/01 08:12:43;;;;;;;;;;;18.10;33.40;;;;;;5095820;28;19966;-52
2023/12/01 08:15:09;;;;;;;;;;;18.20;33.60;;;;;;5108846;28;20053;-50
2023/12/01 08:17:36;;;;;;;;;;;18.20;33.70;;;;;;5110757;28;20363;-55
2023/12/01 08:20:05;;;;;;;;;;;18.30;33.90;;;;;;5096886;28;19928;-53
2023/12/01 08:22:32;;;;;;;;;;;18.30;34.00;;;;;;5093596;28;19923;-52
2023/12/01 08:25:00;;;;;;;;;;;18.30;34.00;;;;;;5099909;28;19934;-55
2023/12/01 08:27:27;;;;;;;;;;;18.30;34.10;;;;;;5091719;28;19919;-56
2023/12/01 08:29:55;;;;;;;;;;;18.40;34.20;;;;;;5110588;28;19947;-49
2023/12/01 08:32:22;;;;;;;;;;;18.40;34.30;;;;;;5094894;28;19923;-55
2023/12/01 08:34:50;;;;;;;;;;;18.40;34.40;;;;;;5108507;28;20384;-55
2023/12/01 08:37:17;;;;;;;;;;;18.40;34.50;;;;;;5110139;28;19934;-55
2023/12/01 08:39:44;;;;;;;;;;;18.50;34.60;;;;;;5109949;28;20001;-55
2023/12/01 08:42:12;;;;;;;;;;;18.50;34.70;;;;;;5099841;28;20019;-56
2023/12/01 08:44:39;;;;;;;;;;;18.50;34.70;;;;;;5102096;28;20371;-52
2023/12/01 08:47:06;;;;;;;;;;;18.50;34.80;;;;;;5100100;28;20434;-56
2023/12/01 08:49:33;;;;;;;;;;;18.50;34.80;;;;;;5095386;28;19924;-56
2023/12/01 08:52:00;;;;;;;;;;;18.50;34.90;;;;;;5103188;27;19924;-56
2023/12/01 08:54:26;;;;;;;;;;;18.60;35.00;;;;;;5099787;28;19931;-55
2023/12/01 08:56:54;;;;;;;;;;;18.60;35.00;;;;;;5099184;28;19924;-55
2023/12/01 08:59:22;;;;;;;;;;;18.60;35.00;;;;;;5096321;28;19991;-55
2023/12/01 09:01:48;;;;;;;;;;;18.60;35.10;;;;;;5094465;28;19924;-54
2023/12/01 09:04:15;;;;;;;;;;;18.60;35.10;;;;;;5097382;28;19936;-54
2023/12/01 09:06:42;;;;;;;;;;;18.60;35.20;;;;;;5095492;28;19920;-53
2023/12/01 09:09:10;;;;;;;;;;;18.60;35.30;;;;;;5095591;28;19928;-53
2023/12/01 09:11:38;;;;;;;;;;;18.70;35.40;;;;;;5097505;28;19924;-55
2023/12/01 09:14:04;;;;;;;;;;;18.70;35.40;;;;;;5110137;28;19934;-51
2023/12/01 09:16:32;;;;;;;;;;;18.70;35.40;;;;;;5109829;28;19935;-55
2023/12/01 09:18:59;;;;;;;;;;;18.70;35.40;;;;;;5104960;28;19928;-57
2023/12/01 09:21:26;;;;;;;;;;;18.70;35.50;;;;;;5093547;28;19936;-57
2023/12/01 09:23:53;;;;;;;;;;;18.70;35.50;;;;;;5093130;28;19951;-53
2023/12/01 09:26:20;;;;;;;;;;;18.80;35.70;;;;;;5094293;28;19945;-55
2023/12/01 09:28:49;;;;;;;;;;;18.80;35.70;;;;;;5111727;28;19928;-53
2023/12/01 09:31:15;;;;;;;;;;;18.80;35.70;;;;;;5111192;28;19932;-55
2023/12/01 09:33:44;;;;;;;;;;;18.80;35.80;;;;;;5091062;28;19982;-52
2023/12/01 09:36:11;;;;;;;;;;;18.80;35.80;;;;;;5095068;28;19931;-54
2023/12/01 09:38:38;;;;;;;;;;;18.80;35.80;;;;;;5098311;28;19977;-52
2023/12/01 09:41:05;;;;;;;;;;;18.80;35.80;;;;;;5109356;28;19936;-56
2023/12/01 09:43:31;;;;;;;;;;;18.80;35.80;;;;;;5096832;28;19970;-55
2023/12/01 09:45:58;;;;;;;;;;;18.80;35.80;;;;;;5102530;28;19928;-49
2023/12/01 09:48:25;;;;;;;;;;;18.80;35.90;;;;;;5109290;28;19924;-54
2023/12/01 09:50:54;;;;;;;;;;;18.80;35.90;;;;;;5094723;28;19939;-58
2023/12/01 09:53:21;;;;;;;;;;;18.80;36.00;;;;;;5106671;28;20002;-58
2023/12/01 09:55:48;;;;;;;;;;;18.90;36.10;;;;;;5111315;28;19931;-57
2023/12/01 09:58:14;;;;;;;;;;;18.90;36.10;;;;;;5097136;28;19928;-52
2023/12/01 10:00:41;;;;;;;;;;;18.90;36.20;;;;;;5096986;28;19981;-57
2023/12/01 10:03:08;;;;;;;;;;;18.90;36.20;;;;;;5099917;28;19932;-54
2023/12/01 10:05:35;;;;;;;;;;;18.90;36.20;;;;;;5100255;28;19928;-52
2023/12/01 10:08:04;;;;;;;;;;;18.90;36.20;;;;;;5102129;27;19935;-55
2023/12/01 10:10:31;;;;;;;;;;;18.90;36.20;;;;;;5097017;28;19930;-56
2023/12/01 10:12:58;;;;;;;;;;;18.90;36.20;;;;;;5117112;27;19988;-58
2023/12/01 10:15:25;;;;;;;;;;;18.90;36.20;;;;;;5118204;27;20026;-52
2023/12/01 10:17:52;;;;;;;;;;;18.90;36.20;;;;;;5103795;28;19924;-54
2023/12/01 10:20:21;;;;;;;;;;;18.90;36.30;;;;;;5109273;27;19931;-54
2023/12/01 10:22:48;;;;;;;;;;;19.00;36.30;;;;;;5099018;28;19963;-54
2023/12/01 10:25:17;;;;;;;;;;;18.90;36.60;;;;;;5114004;27;19923;-53
2023/12/01 10:27:44;;;;;;;;;;;19.00;36.40;;;;;;5116830;27;19962;-56
2023/12/01 10:30:12;;;;;;;;;;;19.00;36.50;;;;;;5098521;28;19935;-54
2023/12/01 10:32:39;;;;;;;;;;;19.00;36.50;;;;;;5095912;27;19927;-54
2023/12/01 10:35:06;;;;;;;;;;;19.00;36.50;;;;;;5102805;28;19969;-53
2023/12/01 10:37:33;;;;;;;;;;;19.00;36.50;;;;;;5111974;28;19924;-54
2023/12/01 10:40:00;;;;;;;;;;;19.00;36.50;;;;;;5095863;28;19931;-54
2023/12/01 10:42:28;;;;;;;;;;;19.00;36.50;;;;;;5112199;28;19927;-54
2023/12/01 10:44:55;;;;;;;;;;;19.00;36.50;;;;;;5113993;28;19930;-57
2023/12/01 10:47:22;;;;;;;;;;;19.00;36.60;;;;;;5104675;28;19928;-55
2023/12/01 10:49:49;;;;;;;;;;;19.00;36.70;;;;;;5098732;28;19927;-56
2023/12/01 10:52:16;;;;;;;;;;;19.00;36.60;;;;;;5103876;28;19928;-56
2023/12/01 10:54:42;;;;;;;;;;;19.00;36.60;;;;;;5113347;28;19972;-55
2023/12/01 10:57:11;;;;;;;;;;;19.00;36.60;;;;;;5097397;28;19924;-51
2023/12/01 10:59:39;;;;;;;;;;;19.10;36.70;;;;;;5113322;28;19932;-56
2023/12/01 11:02:06;;;;;;;;;;;19.10;36.70;;;;;;5095237;28;20014;-56
2023/12/01 11:04:33;;;;;;;;;;;19.10;36.70;;;;;;5097317;28;19920;-56
2023/12/01 11:07:01;;;;;;;;;;;19.10;36.80;;;;;;5112960;28;19954;-52
2023/12/01 11:09:30;;;;;;;;;;;19.00;36.70;;;;;;5097288;28;19927;-53
2023/12/01 11:11:57;;;;;;;;;;;19.10;36.80;;;;;;5097101;28;19931;-54
2023/12/01 11:14:25;;;;;;;;;;;19.10;36.80;;;;;;5094657;28;19924;-53
2023/12/01 11:16:53;;;;;;;;;;;19.10;36.80;;;;;;5112859;28;19984;-53
2023/12/01 11:19:19;;;;;;;;;;;19.10;36.90;;;;;;5097696;28;19984;-51
2023/12/01 11:21:49;;;;;;;;;;;19.10;36.90;;;;;;5095939;28;19930;-52
2023/12/01 11:24:23;;;;;;;;;;;19.10;36.90;;;;;;5113055;28;20072;-54
2023/12/01 11:26:51;;;;;;;;;;;19.10;36.90;;;;;;5098937;28;19927;-54
2023/12/01 11:29:28;;;;;;;;;;;19.10;36.90;;;;;;5098725;28;19927;-57
2023/12/01 11:31:58;;;;;;;;;;;19.10;36.90;;;;;;5102010;28;19924;-55
2023/12/01 11:34:25;;;;;;;;;;;19.10;36.90;;;;;;5107675;28;19924;-56
2023/12/01 11:36:53;;;;;;;;;;;19.10;36.90;;;;;;5112481;28;19928;-51
2023/12/01 11:39:26;;;;;;;;;;;19.10;36.90;;;;;;5094528;28;19928;-55
2023/12/01 11:42:14;;;;;;;;;;;19.10;37.00;;;;;;5096719;28;19936;-57
2023/12/01 11:44:41;;;;;;;;;;;19.10;37.00;;;;;;5114295;28;19927;-54
2023/12/01 11:47:12;;;;;;;;;;;19.20;37.00;;;;;;5096455;28;19934;-54
2023/12/01 11:49:39;;;;;;;;;;;19.10;37.60;;;;;;5098111;28;19998;-55
2023/12/01 11:52:06;;;;;;;;;;;19.20;37.10;;;;;;5114155;28;19935;-55
2023/12/01 11:54:35;;;;;;;;;;;19.20;37.10;;;;;;5101255;28;20008;-53
2023/12/01 11:57:02;;;;;;;;;;;19.20;37.10;;;;;;5102439;28;19934;-54
2023/12/01 11:59:29;;;;;;;;;;;19.20;37.10;;;;;;5098688;28;19973;-54
2023/12/01 12:01:57;;;;;;;;;;;19.10;37.00;;;;;;5091135;28;19924;-54
2023/12/01 12:04:25;;;;;;;;;;;19.20;37.20;;;;;;5098621;28;19931;-55
2023/12/01 12:06:52;;;;;;;;;;;19.20;37.20;;;;;;5097933;28;19955;-55
2023/12/01 12:09:19;;;;;;;;;;;19.20;37.20;;;;;;5096342;28;19928;-52
2023/12/01 12:11:46;;;;;;;;;;;19.20;37.20;;;;;;5108059;28;20456;-51
2023/12/01 12:14:13;;;;;;;;;;;19.20;37.20;;;;;;5095022;28;19923;-55
2023/12/01 12:16:40;;;;;;;;;;;19.20;37.20;;;;;;5101666;28;19932;-56
2023/12/01 12:19:07;;;;;;;;;;;19.20;37.20;;;;;;5093150;28;19924;-55
2023/12/01 12:21:35;;;;;;;;;;;19.20;37.30;;;;;;5093672;28;20012;-55
2023/12/01 12:24:02;;;;;;;;;;;19.20;37.30;;;;;;5099111;28;19927;-57
2023/12/01 12:26:29;;;;;;;;;;;19.20;37.30;;;;;;5095523;28;19935;-55
2023/12/01 12:28:57;;;;;;;;;;;19.20;37.30;;;;;;5094021;28;19924;-58
2023/12/01 12:31:25;;;;;;;;;;;19.20;37.30;;;;;;5111768;28;19969;-55
2023/12/01 12:33:52;;;;;;;;;;;19.30;37.40;;;;;;5099485;28;19928;-56
2023/12/01 12:36:19;;;;;;;;;;;19.20;37.30;;;;;;5105559;28;19928;-56
2023/12/01 12:38:49;;;;;;;;;;;19.20;37.30;;;;;;5112184;28;19930;-57
2023/12/01 12:41:23;;;;;;;;;;;19.20;36.90;;;;;;5095593;28;19920;-55
2023/12/01 12:43:51;;;;;;;;;;;19.20;36.90;;;;;;5109077;28;19967;-56
2023/12/01 12:46:18;;;;;;;;;;;19.20;36.90;;;;;;5086627;28;20385;-54
2023/12/01 12:48:48;;;;;;;;;;;19.20;36.90;;;;;;5092426;28;22429;-53
2023/12/01 12:51:15;;;;;;;;;;;19.20;36.90;;;;;;5096972;28;19924;-54
2023/12/01 12:53:42;;;;;;;;;;;19.20;37.00;;;;;;5099620;28;19938;-55
2023/12/01 12:56:13;;;;;;;;;;;19.20;37.00;;;;;;5098975;28;19932;-54
2023/12/01 12:58:40;;;;;;;;;;;19.20;37.10;;;;;;5099141;28;19938;-56
2023/12/01 13:01:07;;;;;;;;;;;19.20;37.10;;;;;;5110915;28;19928;-55
2023/12/01 13:03:33;;;;;;;;;;;19.20;37.10;;;;;;5089330;28;19998;-56
2023/12/01 13:06:01;;;;;;;;;;;19.20;37.10;;;;;;5100429;28;19931;-53
2023/12/01 13:08:28;;;;;;;;;;;19.20;37.10;;;;;;5108045;28;19924;-55
2023/12/01 13:10:55;;;;;;;;;;;19.30;37.20;;;;;;5097362;28;19943;-55
2023/12/01 13:13:23;;;;;;;;;;;19.30;37.20;;;;;;5110909;28;19924;-57
2023/12/01 13:15:50;;;;;;;;;;;19.30;37.20;;;;;;5099499;28;19931;-53
2023/12/01 13:18:17;;;;;;;;;;;19.30;37.20;;;;;;5098074;28;19932;-54
2023/12/01 13:20:44;;;;;;;;;;;19.40;37.40;;;;;;5100771;28;19924;-52
2023/12/01 13:23:11;;;;;;;;;;;19.40;37.50;;;;;;5097535;28;19939;-54
2023/12/01 13:25:37;;;;;;;;;;;19.40;37.40;;;;;;5097013;28;19935;-51
2023/12/01 13:28:04;;;;;;;;;;;19.40;37.40;;;;;;5110769;28;19927;-54
2023/12/01 13:30:33;;;;;;;;;;;19.50;37.50;;;;;;5094838;28;19927;-54
2023/12/01 13:33:00;;;;;;;;;;;19.50;37.50;;;;;;5095550;28;19931;-52
2023/12/01 13:35:26;;;;;;;;;;;19.50;37.50;;;;;;5108747;28;19950;-57
2023/12/01 13:37:53;;;;;;;;;;;19.50;37.60;;;;;;5094965;28;19923;-57
2023/12/01 13:40:21;;;;;;;;;;;19.60;37.70;;;;;;5097186;28;19928;-58
2023/12/01 13:42:48;;;;;;;;;;;19.60;37.70;;;;;;5098321;28;19924;-50
2023/12/01 13:45:14;;;;;;;;;;;19.60;37.70;;;;;;5098428;28;19931;-56
2023/12/01 13:47:43;;;;;;;;;;;19.60;37.70;;;;;;5098985;28;19963;-57
2023/12/01 13:50:09;;;;;;;;;;;19.60;37.70;;;;;;5096005;28;19928;-57
2023/12/01 13:52:36;;;;;;;;;;;19.60;37.70;;;;;;5114095;28;19923;-51
2023/12/01 13:55:03;;;;;;;;;;;19.70;37.80;;;;;;5094909;28;19931;-51
2023/12/01 13:57:30;;;;;;;;;;;19.70;37.80;;;;;;5112434;28;19936;-50
2023/12/01 13:59:57;;;;;;;;;;;19.70;37.80;;;;;;5109369;28;19924;-55
2023/12/01 14:02:23;;;;;;;;;;;19.70;37.80;;;;;;5103196;28;19928;-55
2023/12/01 14:04:51;;;;;;;;;;;19.80;37.90;;;;;;5101283;28;19928;-58
2023/12/01 14:07:18;;;;;;;;;;;19.70;37.80;;;;;;5099604;28;19924;-55
2023/12/01 14:09:45;;;;;;;;;;;19.80;37.90;;;;;;5097230;28;19931;-52
2023/12/01 14:12:12;;;;;;;;;;;19.80;37.90;;;;;;5102326;28;19923;-50
2023/12/01 14:14:39;;;;;;;;;;;19.80;37.90;;;;;;5089147;28;19924;-55
2023/12/01 14:17:05;;;;;;;;;;;19.80;37.90;;;;;;5113635;28;19928;-53